createdAt,value
2022-10-05T00:00:00.000Z,9.18
2022-10-05T00:15:00.000Z,9.14
2022-10-05T00:30:00.000Z,9.3
2022-10-05T00:45:00.000Z,9.52
2022-10-05T01:00:00.000Z,9.47
2022-10-05T01:15:00.000Z,9.35
2022-10-05T01:30:00.000Z,9.68
2022-10-05T01:45:00.000Z,9.87
2022-10-05T02:00:00.000Z,10.16
2022-10-05T02:15:00.000Z,10.06
2022-10-05T02:30:00.000Z,10.22
2022-10-05T02:45:00.000Z,10.21
2022-10-05T03:00:00.000Z,10.24
2022-10-05T03:15:00.000Z,10.81
2022-10-05T03:30:00.000Z,11.03
2022-10-05T03:45:00.000Z,11.1
2022-10-05T04:00:00.000Z,11.16
2022-10-05T04:15:00.000Z,11
2022-10-05T04:30:00.000Z,10.95
2022-10-05T04:45:00.000Z,10.97
2022-10-05T05:00:00.000Z,11.04
2022-10-05T05:15:00.000Z,11.17
2022-10-05T05:30:00.000Z,11.11
2022-10-05T05:45:00.000Z,11.31
2022-10-05T06:00:00.000Z,11.81
2022-10-05T06:15:00.000Z,12.31
2022-10-05T06:30:00.000Z,12.92
2022-10-05T06:45:00.000Z,13.6
2022-10-05T07:00:00.000Z,15.14
2022-10-05T07:15:00.000Z,17.61
2022-10-05T07:30:00.000Z,18.83
2022-10-05T07:45:00.000Z,20.16
2022-10-05T08:00:00.000Z,21.98
2022-10-05T08:15:00.000Z,22.77
2022-10-05T08:30:00.000Z,23.52
2022-10-05T08:45:00.000Z,23.96
2022-10-05T09:00:00.000Z,23.91
2022-10-05T09:15:00.000Z,24.5
2022-10-05T09:30:00.000Z,25.13
2022-10-05T09:45:00.000Z,25.77
2022-10-05T10:00:00.000Z,25.03
2022-10-05T10:15:00.000Z,24.76
2022-10-05T10:30:00.000Z,24.72
2022-10-05T10:45:00.000Z,25.28
2022-10-05T11:00:00.000Z,25.63
2022-10-05T11:15:00.000Z,25.53
2022-10-05T11:30:00.000Z,25.61
2022-10-05T11:45:00.000Z,25.42
2022-10-05T12:00:00.000Z,25.05
2022-10-05T12:15:00.000Z,24.81
2022-10-05T12:30:00.000Z,24.5
2022-10-05T12:45:00.000Z,23.86
2022-10-05T13:00:00.000Z,24.04
2022-10-05T13:15:00.000Z,24.22
2022-10-05T13:30:00.000Z,24.28
2022-10-05T13:45:00.000Z,23.98
2022-10-05T14:00:00.000Z,23.88
2022-10-05T14:15:00.000Z,23.68
2022-10-05T14:30:00.000Z,23.39
2022-10-05T14:45:00.000Z,23.15
2022-10-05T15:00:00.000Z,22.89
2022-10-05T15:15:00.000Z,22.42
2022-10-05T15:30:00.000Z,21.79
2022-10-05T15:45:00.000Z,21.2
2022-10-05T16:00:00.000Z,20.54
2022-10-05T16:15:00.000Z,20.18
2022-10-05T16:30:00.000Z,19.6
2022-10-05T16:45:00.000Z,19.09
2022-10-05T17:00:00.000Z,18.76
2022-10-05T17:15:00.000Z,18.25
2022-10-05T17:30:00.000Z,17.75
2022-10-05T17:45:00.000Z,17.3
2022-10-05T18:00:00.000Z,17.01
2022-10-05T18:15:00.000Z,16.94
2022-10-05T18:30:00.000Z,16.84
2022-10-05T18:45:00.000Z,16.58
2022-10-05T19:00:00.000Z,16.27
2022-10-05T19:15:00.000Z,16
2022-10-05T19:30:00.000Z,15.78
2022-10-05T19:45:00.000Z,15.73
2022-10-05T20:00:00.000Z,15.71
2022-10-05T20:15:00.000Z,15.73
2022-10-05T20:30:00.000Z,15.68
2022-10-05T20:45:00.000Z,15.6
2022-10-05T21:00:00.000Z,15.54
2022-10-05T21:15:00.000Z,15.46
2022-10-05T21:30:00.000Z,15.12
2022-10-05T21:45:00.000Z,14.81
2022-10-05T22:00:00.000Z,14.64
2022-10-05T22:15:00.000Z,14.7
2022-10-05T22:30:00.000Z,14.91
2022-10-05T22:45:00.000Z,14.84
2022-10-05T23:00:00.000Z,14.64
2022-10-05T23:15:00.000Z,14.48
2022-10-05T23:30:00.000Z,14.4
2022-10-05T23:45:00.000Z,14.66
